sensor_id;sensor_type;location;lat;lon;timestamp;pressure;altitude;pressure_sealevel;temperature
71205;BMP180;58935;54.498;18.544;2023-12-20T00:02:24;99364.20;;;6.90
71205;BMP180;58935;54.498;18.544;2023-12-20T00:04:49;99363.60;;;6.90
71205;BMP180;58935;54.498;18.544;2023-12-20T00:07:15;99363.60;;;6.90
71205;BMP180;58935;54.498;18.544;2023-12-20T00:09:40;99367.00;;;6.90
71205;BMP180;58935;54.498;18.544;2023-12-20T00:12:06;99365.20;;;6.80
71205;BMP180;58935;54.498;18.544;2023-12-20T00:14:31;99374.80;;;6.70
71205;BMP180;58935;54.498;18.544;2023-12-20T00:16:57;99378.00;;;6.50
71205;BMP180;58935;54.498;18.544;2023-12-20T00:19:22;99374.20;;;6.40
71205;BMP180;58935;54.498;18.544;2023-12-20T00:21:47;99377.20;;;6.30
71205;BMP180;58935;54.498;18.544;2023-12-20T00:24:13;99378.40;;;6.20
71205;BMP180;58935;54.498;18.544;2023-12-20T00:26:38;99386.00;;;6.10
71205;BMP180;58935;54.498;18.544;2023-12-20T00:29:03;99402.80;;;6.10
71205;BMP180;58935;54.498;18.544;2023-12-20T00:31:29;99402.80;;;6.00
71205;BMP180;58935;54.498;18.544;2023-12-20T00:33:54;99391.00;;;6.00
71205;BMP180;58935;54.498;18.544;2023-12-20T00:36:20;99392.60;;;5.96
71205;BMP180;58935;54.498;18.544;2023-12-20T00:38:46;99394.20;;;5.90
71205;BMP180;58935;54.498;18.544;2023-12-20T00:41:11;99392.60;;;5.90
71205;BMP180;58935;54.498;18.544;2023-12-20T00:43:36;99392.00;;;5.86
71205;BMP180;58935;54.498;18.544;2023-12-20T00:46:02;99382.00;;;5.80
71205;BMP180;58935;54.498;18.544;2023-12-20T00:48:27;99380.00;;;5.80
71205;BMP180;58935;54.498;18.544;2023-12-20T00:50:55;99384.00;;;5.80
71205;BMP180;58935;54.498;18.544;2023-12-20T00:53:21;99383.20;;;5.70
71205;BMP180;58935;54.498;18.544;2023-12-20T00:55:46;99379.20;;;5.70
71205;BMP180;58935;54.498;18.544;2023-12-20T00:58:11;99379.80;;;5.70
71205;BMP180;58935;54.498;18.544;2023-12-20T01:00:37;99372.60;;;5.70
71205;BMP180;58935;54.498;18.544;2023-12-20T01:03:02;99370.20;;;5.70
71205;BMP180;58935;54.498;18.544;2023-12-20T01:05:27;99371.20;;;5.70
71205;BMP180;58935;54.498;18.544;2023-12-20T01:07:54;99371.60;;;5.60
71205;BMP180;58935;54.498;18.544;2023-12-20T01:10:19;99374.20;;;5.60
71205;BMP180;58935;54.498;18.544;2023-12-20T01:12:47;99365.00;;;5.50
71205;BMP180;58935;54.498;18.544;2023-12-20T01:15:12;99366.80;;;5.50
71205;BMP180;58935;54.498;18.544;2023-12-20T01:17:40;99369.80;;;5.50
71205;BMP180;58935;54.498;18.544;2023-12-20T01:20:06;99363.20;;;5.46
71205;BMP180;58935;54.498;18.544;2023-12-20T01:22:31;99359.80;;;5.40
71205;BMP180;58935;54.498;18.544;2023-12-20T01:24:56;99358.80;;;5.40
71205;BMP180;58935;54.498;18.544;2023-12-20T01:27:22;99356.80;;;5.34
71205;BMP180;58935;54.498;18.544;2023-12-20T01:29:47;99353.60;;;5.30
71205;BMP180;58935;54.498;18.544;2023-12-20T01:32:12;99353.00;;;5.30
71205;BMP180;58935;54.498;18.544;2023-12-20T01:34:38;99355.00;;;5.30
71205;BMP180;58935;54.498;18.544;2023-12-20T01:37:03;99357.20;;;5.30
71205;BMP180;58935;54.498;18.544;2023-12-20T01:39:29;99353.00;;;5.20
71205;BMP180;58935;54.498;18.544;2023-12-20T01:41:54;99358.80;;;5.20
71205;BMP180;58935;54.498;18.544;2023-12-20T01:44:20;99354.80;;;5.20
71205;BMP180;58935;54.498;18.544;2023-12-20T01:46:46;99361.80;;;5.12
71205;BMP180;58935;54.498;18.544;2023-12-20T01:49:12;99358.80;;;5.10
71205;BMP180;58935;54.498;18.544;2023-12-20T01:51:38;99351.20;;;5.10
71205;BMP180;58935;54.498;18.544;2023-12-20T01:54:04;99339.00;;;5.00
71205;BMP180;58935;54.498;18.544;2023-12-20T01:56:34;99343.40;;;5.00
71205;BMP180;58935;54.498;18.544;2023-12-20T01:59:00;99353.60;;;5.00
71205;BMP180;58935;54.498;18.544;2023-12-20T02:01:25;99353.00;;;4.96
71205;BMP180;58935;54.498;18.544;2023-12-20T02:03:53;99349.60;;;4.92
71205;BMP180;58935;54.498;18.544;2023-12-20T02:06:21;99345.20;;;4.90
71205;BMP180;58935;54.498;18.544;2023-12-20T02:08:49;99344.60;;;4.90
71205;BMP180;58935;54.498;18.544;2023-12-20T02:11:15;99350.00;;;4.90
71205;BMP180;58935;54.498;18.544;2023-12-20T02:13:41;99351.00;;;4.80
71205;BMP180;58935;54.498;18.544;2023-12-20T02:16:08;99344.80;;;4.80
71205;BMP180;58935;54.498;18.544;2023-12-20T02:18:36;99335.00;;;4.80
71205;BMP180;58935;54.498;18.544;2023-12-20T02:21:04;99334.80;;;4.80
71205;BMP180;58935;54.498;18.544;2023-12-20T02:23:30;99338.00;;;4.80
71205;BMP180;58935;54.498;18.544;2023-12-20T02:25:55;99347.40;;;4.80
71205;BMP180;58935;54.498;18.544;2023-12-20T02:28:21;99352.40;;;4.76
71205;BMP180;58935;54.498;18.544;2023-12-20T02:30:47;99354.20;;;4.76
71205;BMP180;58935;54.498;18.544;2023-12-20T02:33:15;99357.00;;;4.76
71205;BMP180;58935;54.498;18.544;2023-12-20T02:35:40;99362.20;;;4.70
71205;BMP180;58935;54.498;18.544;2023-12-20T02:38:06;99359.60;;;4.70
71205;BMP180;58935;54.498;18.544;2023-12-20T02:40:32;99354.40;;;4.74
71205;BMP180;58935;54.498;18.544;2023-12-20T02:42:57;99348.40;;;4.80
71205;BMP180;58935;54.498;18.544;2023-12-20T02:45:26;99340.00;;;4.80
71205;BMP180;58935;54.498;18.544;2023-12-20T02:47:52;99340.00;;;4.80
71205;BMP180;58935;54.498;18.544;2023-12-20T02:50:17;99337.40;;;4.82
71205;BMP180;58935;54.498;18.544;2023-12-20T02:52:45;99327.80;;;4.84
71205;BMP180;58935;54.498;18.544;2023-12-20T02:55:13;99331.00;;;4.90
71205;BMP180;58935;54.498;18.544;2023-12-20T02:57:39;99329.80;;;4.90
71205;BMP180;58935;54.498;18.544;2023-12-20T03:00:10;99329.60;;;4.90
71205;BMP180;58935;54.498;18.544;2023-12-20T03:02:36;99323.40;;;4.90
71205;BMP180;58935;54.498;18.544;2023-12-20T03:05:04;99315.20;;;4.90
71205;BMP180;58935;54.498;18.544;2023-12-20T03:07:29;99322.00;;;4.90
71205;BMP180;58935;54.498;18.544;2023-12-20T03:09:55;99315.20;;;4.90
71205;BMP180;58935;54.498;18.544;2023-12-20T03:12:20;99315.40;;;4.90
71205;BMP180;58935;54.498;18.544;2023-12-20T03:14:45;99300.00;;;4.90
71205;BMP180;58935;54.498;18.544;2023-12-20T03:17:11;99307.80;;;4.90
71205;BMP180;58935;54.498;18.544;2023-12-20T03:19:36;99295.00;;;4.90
71205;BMP180;58935;54.498;18.544;2023-12-20T03:22:02;99302.00;;;4.90
71205;BMP180;58935;54.498;18.544;2023-12-20T03:24:27;99304.20;;;4.90
71205;BMP180;58935;54.498;18.544;2023-12-20T03:26:53;99301.40;;;4.90
71205;BMP180;58935;54.498;18.544;2023-12-20T03:29:21;99302.80;;;4.90
71205;BMP180;58935;54.498;18.544;2023-12-20T03:31:46;99305.60;;;4.90
71205;BMP180;58935;54.498;18.544;2023-12-20T03:34:11;99302.20;;;4.86
71205;BMP180;58935;54.498;18.544;2023-12-20T03:36:37;99310.40;;;4.80
71205;BMP180;58935;54.498;18.544;2023-12-20T03:39:02;99310.60;;;4.80
71205;BMP180;58935;54.498;18.544;2023-12-20T03:41:28;99310.40;;;4.80
71205;BMP180;58935;54.498;18.544;2023-12-20T03:43:53;99307.80;;;4.80
71205;BMP180;58935;54.498;18.544;2023-12-20T03:46:19;99297.80;;;4.74
71205;BMP180;58935;54.498;18.544;2023-12-20T03:48:44;99305.80;;;4.70
71205;BMP180;58935;54.498;18.544;2023-12-20T03:51:09;99310.80;;;4.70
71205;BMP180;58935;54.498;18.544;2023-12-20T03:53:34;99310.40;;;4.70
71205;BMP180;58935;54.498;18.544;2023-12-20T03:56:00;99304.80;;;4.70
71205;BMP180;58935;54.498;18.544;2023-12-20T03:58:27;99312.80;;;4.66
71205;BMP180;58935;54.498;18.544;2023-12-20T05:41:59;99290.80;;;3.88
71205;BMP180;58935;54.498;18.544;2023-12-20T05:44:25;99285.40;;;3.82
71205;BMP180;58935;54.498;18.544;2023-12-20T05:46:50;99288.60;;;3.80
71205;BMP180;58935;54.498;18.544;2023-12-20T05:49:15;99294.00;;;3.80
71205;BMP180;58935;54.498;18.544;2023-12-20T05:51:41;99296.60;;;3.80
71205;BMP180;58935;54.498;18.544;2023-12-20T05:54:08;99297.80;;;3.80
71205;BMP180;58935;54.498;18.544;2023-12-20T05:56:34;99289.60;;;3.80
71205;BMP180;58935;54.498;18.544;2023-12-20T05:59:01;99293.40;;;3.80
71205;BMP180;58935;54.498;18.544;2023-12-20T06:01:27;99295.80;;;3.76
71205;BMP180;58935;54.498;18.544;2023-12-20T06:03:52;99291.60;;;3.80
71205;BMP180;58935;54.498;18.544;2023-12-20T06:06:18;99291.20;;;3.80
71205;BMP180;58935;54.498;18.544;2023-12-20T06:08:43;99286.60;;;3.70
71205;BMP180;58935;54.498;18.544;2023-12-20T06:11:11;99279.00;;;3.70
71205;BMP180;58935;54.498;18.544;2023-12-20T06:13:36;99280.00;;;3.70
71205;BMP180;58935;54.498;18.544;2023-12-20T06:16:04;99264.00;;;3.70
71205;BMP180;58935;54.498;18.544;2023-12-20T06:18:30;99267.80;;;3.70
71205;BMP180;58935;54.498;18.544;2023-12-20T06:20:55;99263.80;;;3.62
71205;BMP180;58935;54.498;18.544;2023-12-20T06:23:20;99260.00;;;3.60
71205;BMP180;58935;54.498;18.544;2023-12-20T06:25:46;99255.40;;;3.60
71205;BMP180;58935;54.498;18.544;2023-12-20T06:28:11;99258.00;;;3.60
71205;BMP180;58935;54.498;18.544;2023-12-20T06:30:39;99256.40;;;3.60
71205;BMP180;58935;54.498;18.544;2023-12-20T06:33:05;99257.20;;;3.60
71205;BMP180;58935;54.498;18.544;2023-12-20T06:35:32;99256.20;;;3.60
71205;BMP180;58935;54.498;18.544;2023-12-20T06:37:58;99257.60;;;3.60
71205;BMP180;58935;54.498;18.544;2023-12-20T06:40:23;99251.20;;;3.56
71205;BMP180;58935;54.498;18.544;2023-12-20T06:42:51;99256.80;;;3.58
71205;BMP180;58935;54.498;18.544;2023-12-20T06:45:16;99245.40;;;3.56
71205;BMP180;58935;54.498;18.544;2023-12-20T06:47:42;99251.20;;;3.50
71205;BMP180;58935;54.498;18.544;2023-12-20T06:50:07;99242.60;;;3.54
71205;BMP180;58935;54.498;18.544;2023-12-20T06:52:34;99245.20;;;3.52
71205;BMP180;58935;54.498;18.544;2023-12-20T06:55:00;99247.60;;;3.50
71205;BMP180;58935;54.498;18.544;2023-12-20T06:57:26;99245.80;;;3.50
71205;BMP180;58935;54.498;18.544;2023-12-20T06:59:52;99242.40;;;3.50
71205;BMP180;58935;54.498;18.544;2023-12-20T07:02:17;99248.20;;;3.50
71205;BMP180;58935;54.498;18.544;2023-12-20T07:04:42;99250.80;;;3.50
71205;BMP180;58935;54.498;18.544;2023-12-20T07:07:08;99253.20;;;3.50
71205;BMP180;58935;54.498;18.544;2023-12-20T07:09:33;99253.00;;;3.50
71205;BMP180;58935;54.498;18.544;2023-12-20T07:11:59;99250.80;;;3.50
71205;BMP180;58935;54.498;18.544;2023-12-20T07:14:24;99248.20;;;3.50
71205;BMP180;58935;54.498;18.544;2023-12-20T07:16:50;99250.00;;;3.50
71205;BMP180;58935;54.498;18.544;2023-12-20T07:19:15;99249.80;;;3.50
71205;BMP180;58935;54.498;18.544;2023-12-20T07:21:41;99249.80;;;3.50
71205;BMP180;58935;54.498;18.544;2023-12-20T07:24:06;99244.00;;;3.50
71205;BMP180;58935;54.498;18.544;2023-12-20T07:26:31;99235.60;;;3.50
71205;BMP180;58935;54.498;18.544;2023-12-20T07:28:57;99224.20;;;3.50
71205;BMP180;58935;54.498;18.544;2023-12-20T07:31:24;99226.40;;;3.50
71205;BMP180;58935;54.498;18.544;2023-12-20T07:33:49;99225.60;;;3.46
71205;BMP180;58935;54.498;18.544;2023-12-20T07:36:14;99223.00;;;3.44
71205;BMP180;58935;54.498;18.544;2023-12-20T07:38:40;99228.80;;;3.40
71205;BMP180;58935;54.498;18.544;2023-12-20T07:41:09;99218.00;;;3.40
71205;BMP180;58935;54.498;18.544;2023-12-20T07:43:35;99218.00;;;3.40
71205;BMP180;58935;54.498;18.544;2023-12-20T07:46:05;99221.60;;;3.40
71205;BMP180;58935;54.498;18.544;2023-12-20T07:48:30;99234.00;;;3.40
71205;BMP180;58935;54.498;18.544;2023-12-20T07:50:56;99236.80;;;3.40
71205;BMP180;58935;54.498;18.544;2023-12-20T07:53:23;99231.80;;;3.40
71205;BMP180;58935;54.498;18.544;2023-12-20T07:55:49;99227.80;;;3.40
71205;BMP180;58935;54.498;18.544;2023-12-20T07:58:14;99222.20;;;3.40
71205;BMP180;58935;54.498;18.544;2023-12-20T08:00:39;99226.60;;;3.40
71205;BMP180;58935;54.498;18.544;2023-12-20T08:03:05;99220.00;;;3.40
71205;BMP180;58935;54.498;18.544;2023-12-20T08:05:30;99210.00;;;3.50
71205;BMP180;58935;54.498;18.544;2023-12-20T08:07:55;99200.40;;;3.50
71205;BMP180;58935;54.498;18.544;2023-12-20T08:10:21;99202.00;;;3.50
71205;BMP180;58935;54.498;18.544;2023-12-20T08:12:46;99198.80;;;3.50
71205;BMP180;58935;54.498;18.544;2023-12-20T08:15:11;99189.40;;;3.50
71205;BMP180;58935;54.498;18.544;2023-12-20T08:17:37;99188.60;;;3.60
71205;BMP180;58935;54.498;18.544;2023-12-20T08:20:03;99180.80;;;3.60
71205;BMP180;58935;54.498;18.544;2023-12-20T08:22:28;99175.00;;;3.60
71205;BMP180;58935;54.498;18.544;2023-12-20T08:24:53;99176.20;;;3.70
71205;BMP180;58935;54.498;18.544;2023-12-20T08:27:19;99176.00;;;3.70
71205;BMP180;58935;54.498;18.544;2023-12-20T08:29:44;99177.00;;;3.80
71205;BMP180;58935;54.498;18.544;2023-12-20T08:32:10;99173.00;;;3.84
71205;BMP180;58935;54.498;18.544;2023-12-20T08:34:36;99173.60;;;3.90
71205;BMP180;58935;54.498;18.544;2023-12-20T08:37:01;99175.20;;;4.00
71205;BMP180;58935;54.498;18.544;2023-12-20T08:39:26;99169.40;;;4.10
71205;BMP180;58935;54.498;18.544;2023-12-20T08:41:52;99175.40;;;4.10
71205;BMP180;58935;54.498;18.544;2023-12-20T08:44:18;99161.40;;;4.20
71205;BMP180;58935;54.498;18.544;2023-12-20T08:46:43;99159.40;;;4.30
71205;BMP180;58935;54.498;18.544;2023-12-20T08:49:11;99155.00;;;4.38
71205;BMP180;58935;54.498;18.544;2023-12-20T08:51:36;99154.20;;;4.40
71205;BMP180;58935;54.498;18.544;2023-12-20T08:54:05;99153.00;;;4.50
71205;BMP180;58935;54.498;18.544;2023-12-20T08:56:33;99155.40;;;4.60
71205;BMP180;58935;54.498;18.544;2023-12-20T08:59:01;99147.80;;;4.60
71205;BMP180;58935;54.498;18.544;2023-12-20T09:01:26;99148.00;;;4.70
71205;BMP180;58935;54.498;18.544;2023-12-20T09:03:52;99134.40;;;4.70
71205;BMP180;58935;54.498;18.544;2023-12-20T09:06:17;99130.00;;;4.70
71205;BMP180;58935;54.498;18.544;2023-12-20T09:08:42;99132.00;;;4.70
71205;BMP180;58935;54.498;18.544;2023-12-20T09:11:08;99127.80;;;4.72
71205;BMP180;58935;54.498;18.544;2023-12-20T09:13:33;99125.60;;;4.80
71205;BMP180;58935;54.498;18.544;2023-12-20T09:15:58;99120.40;;;4.80
71205;BMP180;58935;54.498;18.544;2023-12-20T09:18:24;99116.00;;;4.76
71205;BMP180;58935;54.498;18.544;2023-12-20T09:20:49;99118.40;;;4.70
71205;BMP180;58935;54.498;18.544;2023-12-20T09:23:15;99115.00;;;4.72
71205;BMP180;58935;54.498;18.544;2023-12-20T09:25:40;99115.20;;;4.72
71205;BMP180;58935;54.498;18.544;2023-12-20T09:28:06;99097.80;;;4.72
71205;BMP180;58935;54.498;18.544;2023-12-20T09:30:31;99098.80;;;4.72
71205;BMP180;58935;54.498;18.544;2023-12-20T09:32:57;99088.40;;;4.80
71205;BMP180;58935;54.498;18.544;2023-12-20T09:35:23;99087.00;;;4.80
71205;BMP180;58935;54.498;18.544;2023-12-20T09:37:49;99097.60;;;4.82
71205;BMP180;58935;54.498;18.544;2023-12-20T09:40:18;99094.60;;;4.90
71205;BMP180;58935;54.498;18.544;2023-12-20T09:42:48;99089.80;;;4.90
71205;BMP180;58935;54.498;18.544;2023-12-20T09:45:19;99083.60;;;4.96
71205;BMP180;58935;54.498;18.544;2023-12-20T09:47:45;99084.40;;;5.00
71205;BMP180;58935;54.498;18.544;2023-12-20T09:50:13;99079.40;;;5.00
71205;BMP180;58935;54.498;18.544;2023-12-20T09:52:39;99072.60;;;5.10
71205;BMP180;58935;54.498;18.544;2023-12-20T09:55:06;99066.00;;;5.10
71205;BMP180;58935;54.498;18.544;2023-12-20T09:57:33;99061.20;;;5.12
71205;BMP180;58935;54.498;18.544;2023-12-20T09:59:58;99059.80;;;5.20
71205;BMP180;58935;54.498;18.544;2023-12-20T10:02:25;99046.60;;;5.20
71205;BMP180;58935;54.498;18.544;2023-12-20T10:04:52;99046.80;;;5.20
71205;BMP180;58935;54.498;18.544;2023-12-20T10:07:18;99036.80;;;5.20
71205;BMP180;58935;54.498;18.544;2023-12-20T10:09:44;99025.40;;;5.20
71205;BMP180;58935;54.498;18.544;2023-12-20T10:12:09;99034.20;;;5.20
71205;BMP180;58935;54.498;18.544;2023-12-20T10:14:34;99027.60;;;5.10
71205;BMP180;58935;54.498;18.544;2023-12-20T10:17:03;99021.80;;;5.10
71205;BMP180;58935;54.498;18.544;2023-12-20T10:19:29;99018.60;;;5.10
71205;BMP180;58935;54.498;18.544;2023-12-20T10:21:54;99008.20;;;5.10
71205;BMP180;58935;54.498;18.544;2023-12-20T10:24:19;98993.00;;;5.04
71205;BMP180;58935;54.498;18.544;2023-12-20T10:26:45;98995.60;;;5.04
71205;BMP180;58935;54.498;18.544;2023-12-20T10:29:13;98982.40;;;5.04
71205;BMP180;58935;54.498;18.544;2023-12-20T10:31:38;98990.20;;;5.00
71205;BMP180;58935;54.498;18.544;2023-12-20T10:34:04;98982.40;;;5.02
71205;BMP180;58935;54.498;18.544;2023-12-20T10:36:31;98966.60;;;5.02
71205;BMP180;58935;54.498;18.544;2023-12-20T10:38:57;98970.80;;;5.00
71205;BMP180;58935;54.498;18.544;2023-12-20T10:41:26;98960.00;;;5.00
71205;BMP180;58935;54.498;18.544;2023-12-20T10:43:58;98959.20;;;5.00
71205;BMP180;58935;54.498;18.544;2023-12-20T10:46:24;98956.00;;;5.00
71205;BMP180;58935;54.498;18.544;2023-12-20T10:48:53;98946.60;;;5.00
71205;BMP180;58935;54.498;18.544;2023-12-20T10:51:20;98948.00;;;5.00
71205;BMP180;58935;54.498;18.544;2023-12-20T10:53:47;98940.60;;;5.00
71205;BMP180;58935;54.498;18.544;2023-12-20T10:56:16;98942.20;;;5.06
71205;BMP180;58935;54.498;18.544;2023-12-20T10:58:42;98929.80;;;5.10
71205;BMP180;58935;54.498;18.544;2023-12-20T11:01:09;98940.00;;;5.10
71205;BMP180;58935;54.498;18.544;2023-12-20T11:03:36;98926.60;;;5.10
71205;BMP180;58935;54.498;18.544;2023-12-20T11:06:10;98922.40;;;5.10
71205;BMP180;58935;54.498;18.544;2023-12-20T11:08:46;98921.60;;;5.10
71205;BMP180;58935;54.498;18.544;2023-12-20T11:11:20;98915.60;;;5.12
71205;BMP180;58935;54.498;18.544;2023-12-20T11:13:55;98915.80;;;5.20
71205;BMP180;58935;54.498;18.544;2023-12-20T11:16:22;98915.40;;;5.20
71205;BMP180;58935;54.498;18.544;2023-12-20T11:18:50;98910.20;;;5.20
71205;BMP180;58935;54.498;18.544;2023-12-20T11:21:15;98914.80;;;5.28
71205;BMP180;58935;54.498;18.544;2023-12-20T11:23:43;98908.80;;;5.30
71205;BMP180;58935;54.498;18.544;2023-12-20T11:26:09;98895.40;;;5.30
71205;BMP180;58935;54.498;18.544;2023-12-20T11:28:34;98896.80;;;5.30
71205;BMP180;58935;54.498;18.544;2023-12-20T11:31:01;98887.00;;;5.30
71205;BMP180;58935;54.498;18.544;2023-12-20T11:33:35;98866.60;;;5.30
71205;BMP180;58935;54.498;18.544;2023-12-20T11:36:03;98876.80;;;5.32
71205;BMP180;58935;54.498;18.544;2023-12-20T11:41:01;98870.20;;;5.30
71205;BMP180;58935;54.498;18.544;2023-12-20T11:43:30;98861.40;;;5.30
71205;BMP180;58935;54.498;18.544;2023-12-20T11:46:02;98863.60;;;5.32
71205;BMP180;58935;54.498;18.544;2023-12-20T11:51:02;98847.40;;;5.40
71205;BMP180;58935;54.498;18.544;2023-12-20T11:53:33;98845.20;;;5.40
71205;BMP180;58935;54.498;18.544;2023-12-20T11:58:38;98833.40;;;5.50
71205;BMP180;58935;54.498;18.544;2023-12-20T12:06:16;98818.20;;;5.50
71205;BMP180;58935;54.498;18.544;2023-12-20T12:11:16;98815.60;;;5.50
71205;BMP180;58935;54.498;18.544;2023-12-20T12:13:44;98811.40;;;5.50
71205;BMP180;58935;54.498;18.544;2023-12-20T12:16:10;98803.20;;;5.50
71205;BMP180;58935;54.498;18.544;2023-12-20T12:18:35;98798.60;;;5.52
71205;BMP180;58935;54.498;18.544;2023-12-20T12:21:01;98796.00;;;5.60
71205;BMP180;58935;54.498;18.544;2023-12-20T12:23:29;98797.40;;;5.60
71205;BMP180;58935;54.498;18.544;2023-12-20T12:25:56;98801.20;;;5.60
71205;BMP180;58935;54.498;18.544;2023-12-20T12:28:26;98794.00;;;5.58
71205;BMP180;58935;54.498;18.544;2023-12-20T12:30:58;98798.40;;;5.50
71205;BMP180;58935;54.498;18.544;2023-12-20T12:33:25;98790.20;;;5.50
71205;BMP180;58935;54.498;18.544;2023-12-20T12:35:54;98788.80;;;5.50
71205;BMP180;58935;54.498;18.544;2023-12-20T12:38:21;98768.00;;;5.50
71205;BMP180;58935;54.498;18.544;2023-12-20T12:40:46;98782.00;;;5.44
71205;BMP180;58935;54.498;18.544;2023-12-20T12:43:12;98779.40;;;5.40
71205;BMP180;58935;54.498;18.544;2023-12-20T12:45:38;98774.00;;;5.40
71205;BMP180;58935;54.498;18.544;2023-12-20T12:48:06;98773.20;;;5.40
71205;BMP180;58935;54.498;18.544;2023-12-20T12:50:31;98778.20;;;5.40
71205;BMP180;58935;54.498;18.544;2023-12-20T12:52:57;98775.00;;;5.40
71205;BMP180;58935;54.498;18.544;2023-12-20T12:55:22;98776.20;;;5.40
71205;BMP180;58935;54.498;18.544;2023-12-20T12:57:48;98766.80;;;5.40
71205;BMP180;58935;54.498;18.544;2023-12-20T13:00:15;98770.60;;;5.40
71205;BMP180;58935;54.498;18.544;2023-12-20T13:02:44;98758.60;;;5.40
71205;BMP180;58935;54.498;18.544;2023-12-20T13:05:10;98759.80;;;5.40
71205;BMP180;58935;54.498;18.544;2023-12-20T13:07:35;98752.20;;;5.30
71205;BMP180;58935;54.498;18.544;2023-12-20T13:10:02;98755.00;;;5.30
71205;BMP180;58935;54.498;18.544;2023-12-20T13:12:29;98755.20;;;5.22
71205;BMP180;58935;54.498;18.544;2023-12-20T13:14:54;98747.60;;;5.20
71205;BMP180;58935;54.498;18.544;2023-12-20T13:17:20;98745.60;;;5.20
71205;BMP180;58935;54.498;18.544;2023-12-20T13:19:46;98733.80;;;5.20
71205;BMP180;58935;54.498;18.544;2023-12-20T13:22:11;98730.80;;;5.20
71205;BMP180;58935;54.498;18.544;2023-12-20T13:24:36;98734.80;;;5.20
71205;BMP180;58935;54.498;18.544;2023-12-20T13:27:02;98729.20;;;5.20
71205;BMP180;58935;54.498;18.544;2023-12-20T13:29:27;98722.80;;;5.20
71205;BMP180;58935;54.498;18.544;2023-12-20T13:31:53;98698.20;;;5.20
71205;BMP180;58935;54.498;18.544;2023-12-20T13:34:18;98720.80;;;5.20
71205;BMP180;58935;54.498;18.544;2023-12-20T13:36:44;98713.00;;;5.20
71205;BMP180;58935;54.498;18.544;2023-12-20T13:39:12;98705.20;;;5.20
71205;BMP180;58935;54.498;18.544;2023-12-20T13:41:38;98707.00;;;5.20
71205;BMP180;58935;54.498;18.544;2023-12-20T13:44:04;98715.20;;;5.20
71205;BMP180;58935;54.498;18.544;2023-12-20T13:46:29;98708.40;;;5.20
71205;BMP180;58935;54.498;18.544;2023-12-20T13:48:55;98708.60;;;5.28
71205;BMP180;58935;54.498;18.544;2023-12-20T13:51:20;98704.80;;;5.28
71205;BMP180;58935;54.498;18.544;2023-12-20T13:53:46;98699.00;;;5.26
71205;BMP180;58935;54.498;18.544;2023-12-20T13:56:13;98701.00;;;5.22
71205;BMP180;58935;54.498;18.544;2023-12-20T13:58:39;98700.40;;;5.20
71205;BMP180;58935;54.498;18.544;2023-12-20T14:01:09;98703.20;;;5.20
71205;BMP180;58935;54.498;18.544;2023-12-20T14:03:35;98695.80;;;5.20
71205;BMP180;58935;54.498;18.544;2023-12-20T14:06:01;98690.80;;;5.20
71205;BMP180;58935;54.498;18.544;2023-12-20T14:08:26;98688.00;;;5.18
71205;BMP180;58935;54.498;18.544;2023-12-20T14:10:52;98691.20;;;5.10
71205;BMP180;58935;54.498;18.544;2023-12-20T14:13:18;98686.40;;;5.10
71205;BMP180;58935;54.498;18.544;2023-12-20T14:15:43;98688.60;;;5.10
71205;BMP180;58935;54.498;18.544;2023-12-20T14:18:09;98691.40;;;5.10
71205;BMP180;58935;54.498;18.544;2023-12-20T14:20:35;98688.20;;;5.10
71205;BMP180;58935;54.498;18.544;2023-12-20T14:23:03;98683.40;;;5.10
71205;BMP180;58935;54.498;18.544;2023-12-20T14:25:29;98686.80;;;5.06
71205;BMP180;58935;54.498;18.544;2023-12-20T14:27:56;98678.00;;;5.06
71205;BMP180;58935;54.498;18.544;2023-12-20T14:30:25;98671.40;;;5.00
71205;BMP180;58935;54.498;18.544;2023-12-20T14:32:50;98672.20;;;5.00
71205;BMP180;58935;54.498;18.544;2023-12-20T14:35:15;98668.00;;;5.00
71205;BMP180;58935;54.498;18.544;2023-12-20T14:37:43;98653.80;;;5.00
71205;BMP180;58935;54.498;18.544;2023-12-20T14:40:10;98657.00;;;4.90
71205;BMP180;58935;54.498;18.544;2023-12-20T14:42:40;98646.20;;;4.90
71205;BMP180;58935;54.498;18.544;2023-12-20T14:45:05;98654.80;;;4.90
71205;BMP180;58935;54.498;18.544;2023-12-20T14:47:31;98660.20;;;5.00
71205;BMP180;58935;54.498;18.544;2023-12-20T14:49:56;98661.40;;;5.00
71205;BMP180;58935;54.498;18.544;2023-12-20T14:52:22;98658.40;;;5.00
71205;BMP180;58935;54.498;18.544;2023-12-20T14:54:48;98647.20;;;5.00
71205;BMP180;58935;54.498;18.544;2023-12-20T14:57:13;98645.80;;;5.00
71205;BMP180;58935;54.498;18.544;2023-12-20T14:59:39;98646.80;;;5.00
71205;BMP180;58935;54.498;18.544;2023-12-20T15:02:04;98648.60;;;5.00
71205;BMP180;58935;54.498;18.544;2023-12-20T15:04:32;98645.60;;;5.00
71205;BMP180;58935;54.498;18.544;2023-12-20T15:06:58;98647.00;;;5.00
71205;BMP180;58935;54.498;18.544;2023-12-20T15:09:23;98640.00;;;5.00
71205;BMP180;58935;54.498;18.544;2023-12-20T15:11:51;98628.20;;;5.00
71205;BMP180;58935;54.498;18.544;2023-12-20T15:14:17;98627.20;;;5.00
71205;BMP180;58935;54.498;18.544;2023-12-20T15:16:45;98627.40;;;5.00
71205;BMP180;58935;54.498;18.544;2023-12-20T15:19:12;98636.20;;;5.10
71205;BMP180;58935;54.498;18.544;2023-12-20T15:21:38;98637.20;;;5.10
71205;BMP180;58935;54.498;18.544;2023-12-20T15:24:08;98628.40;;;5.08
71205;BMP180;58935;54.498;18.544;2023-12-20T15:26:40;98617.40;;;5.08
71205;BMP180;58935;54.498;18.544;2023-12-20T15:29:06;98613.60;;;5.10
71205;BMP180;58935;54.498;18.544;2023-12-20T15:31:32;98602.20;;;5.10
71205;BMP180;58935;54.498;18.544;2023-12-20T15:33:59;98591.00;;;5.10
71205;BMP180;58935;54.498;18.544;2023-12-20T15:36:26;98586.40;;;5.10
71205;BMP180;58935;54.498;18.544;2023-12-20T15:38:52;98589.60;;;5.10
71205;BMP180;58935;54.498;18.544;2023-12-20T15:41:18;98589.80;;;5.10
71205;BMP180;58935;54.498;18.544;2023-12-20T15:43:44;98577.60;;;5.10
71205;BMP180;58935;54.498;18.544;2023-12-20T15:46:10;98581.20;;;5.10
71205;BMP180;58935;54.498;18.544;2023-12-20T15:48:36;98573.80;;;5.10
71205;BMP180;58935;54.498;18.544;2023-12-20T15:51:04;98576.60;;;5.10
71205;BMP180;58935;54.498;18.544;2023-12-20T15:53:30;98581.00;;;5.10
71205;BMP180;58935;54.498;18.544;2023-12-20T15:55:55;98566.80;;;5.10
71205;BMP180;58935;54.498;18.544;2023-12-20T15:58:23;98565.40;;;5.10
71205;BMP180;58935;54.498;18.544;2023-12-20T16:00:48;98559.00;;;5.10